createdAt,value
2022-10-01T00:00:47.049Z,27.70
2022-10-01T00:01:49.340Z,30.80
2022-10-01T00:02:53.143Z,28.27
2022-10-01T00:03:55.357Z,25.50
2022-10-01T00:04:57.462Z,29.70
2022-10-01T00:06:07.702Z,27.60
2022-10-01T00:07:09.949Z,27.30
2022-10-01T00:08:15.846Z,28.30
2022-10-01T00:09:18.008Z,27.40
2022-10-01T00:10:21.071Z,28.70
2022-10-01T00:11:26.343Z,26.30
2022-10-01T00:12:29.353Z,24.90
2022-10-01T00:13:32.470Z,30.10
2022-10-01T00:14:35.753Z,22.30
2022-10-01T00:15:42.315Z,26.30
2022-10-01T00:16:44.745Z,26.30
2022-10-01T00:17:47.077Z,26.70
2022-10-01T00:18:49.534Z,24.30
2022-10-01T00:19:53.773Z,27.40
2022-10-01T00:20:55.930Z,29.30
2022-10-01T00:21:58.050Z,27.90
2022-10-01T00:23:00.132Z,29.00
2022-10-01T00:24:04.064Z,26.18
2022-10-01T00:25:07.424Z,29.60
2022-10-01T00:26:23.929Z,23.30
2022-10-01T00:27:26.672Z,29.20
2022-10-01T00:28:29.255Z,23.70
2022-10-01T00:29:31.664Z,26.90
2022-10-01T00:30:37.222Z,29.00
2022-10-01T00:31:38.576Z,28.80
2022-10-01T00:32:42.049Z,23.20
2022-10-01T00:33:44.164Z,26.40
2022-10-01T00:34:46.381Z,27.70
2022-10-01T00:35:49.239Z,25.20
2022-10-01T00:36:51.842Z,25.70
2022-10-01T00:37:54.983Z,25.70
2022-10-01T00:38:57.100Z,25.30
2022-10-01T00:39:59.358Z,27.40
2022-10-01T00:41:02.417Z,24.90
2022-10-01T00:42:16.752Z,27.18
2022-10-01T00:43:22.318Z,27.40
2022-10-01T00:44:31.512Z,26.40
2022-10-01T00:45:33.828Z,24.70
2022-10-01T00:46:41.054Z,18.90
2022-10-01T00:47:49.654Z,25.90
2022-10-01T00:48:56.522Z,26.90
2022-10-01T00:50:11.263Z,24.60
2022-10-01T00:51:14.089Z,25.00
2022-10-01T00:52:20.101Z,24.00
2022-10-01T00:53:23.626Z,26.80
2022-10-01T00:54:28.781Z,25.90
2022-10-01T00:55:37.184Z,22.80
2022-10-01T00:56:39.546Z,26.90
2022-10-01T00:57:42.349Z,26.50
2022-10-01T00:58:45.337Z,23.80
2022-10-01T00:59:47.458Z,24.70
2022-10-01T01:00:50.472Z,24.20
2022-10-01T01:01:53.247Z,24.18
2022-10-01T01:02:55.664Z,27.00
2022-10-01T01:03:57.777Z,25.70
2022-10-01T01:05:00.174Z,25.80
2022-10-01T01:06:02.375Z,26.30
2022-10-01T01:07:05.286Z,26.50
2022-10-01T01:08:07.541Z,26.40
2022-10-01T01:09:09.635Z,25.00
2022-10-01T01:10:13.578Z,27.70
2022-10-01T01:11:26.091Z,26.90
2022-10-01T01:12:32.010Z,25.30
2022-10-01T01:13:53.189Z,21.50
2022-10-01T01:15:24.567Z,27.10
2022-10-01T01:16:33.204Z,25.30
2022-10-01T01:17:48.432Z,21.20
2022-10-01T01:18:57.537Z,20.70
2022-10-01T01:20:19.363Z,22.80
2022-10-01T01:21:32.574Z,22.50
2022-10-01T01:22:36.803Z,17.60
2022-10-01T01:24:11.960Z,24.00
2022-10-01T01:25:18.660Z,26.50
2022-10-01T01:26:30.563Z,28.60
2022-10-01T01:27:37.596Z,25.90
2022-10-01T01:28:42.072Z,21.60
2022-10-01T01:29:57.693Z,21.20
2022-10-01T01:31:07.342Z,26.40
2022-10-01T01:32:16.864Z,25.90
2022-10-01T01:33:21.337Z,25.30
2022-10-01T01:34:28.645Z,25.10
2022-10-01T01:35:42.459Z,26.20
2022-10-01T01:36:46.617Z,26.00
2022-10-01T01:37:52.180Z,28.30
2022-10-01T01:39:00.101Z,25.00
2022-10-01T01:40:02.559Z,25.60
2022-10-01T01:41:05.588Z,26.40
2022-10-01T01:42:11.869Z,28.60
2022-10-01T01:43:14.704Z,24.90
2022-10-01T01:44:21.468Z,28.50
2022-10-01T01:45:27.689Z,28.80
2022-10-01T01:46:30.914Z,23.90
2022-10-01T01:47:33.087Z,26.90
2022-10-01T01:48:35.734Z,24.50
2022-10-01T01:49:38.930Z,25.50
2022-10-01T01:50:45.115Z,26.30
2022-10-01T01:53:01.884Z,20.30
2022-10-01T01:54:04.745Z,26.30
2022-10-01T01:55:09.120Z,17.90
2022-10-01T01:56:12.198Z,21.10
2022-10-01T01:57:15.616Z,25.50
2022-10-01T01:58:19.356Z,21.70
2022-10-01T01:59:21.837Z,25.70
2022-10-01T02:00:24.044Z,26.20
2022-10-01T02:01:38.570Z,29.50
2022-10-01T02:03:55.825Z,24.30
2022-10-01T02:05:15.379Z,23.20
2022-10-01T02:06:30.301Z,25.00
2022-10-01T02:09:08.038Z,23.20
2022-10-01T02:10:20.649Z,25.40
2022-10-01T02:11:26.633Z,25.20
2022-10-01T02:12:59.801Z,25.10
2022-10-01T02:15:45.212Z,25.40
2022-10-01T02:18:29.147Z,22.30
2022-10-01T02:19:38.002Z,25.40
2022-10-01T02:21:05.651Z,27.50
2022-10-01T02:22:15.241Z,24.80
2022-10-01T02:23:20.851Z,22.60
2022-10-01T02:24:32.548Z,22.10
2022-10-01T02:25:42.473Z,25.50
2022-10-01T02:26:45.179Z,24.40
2022-10-01T02:27:50.808Z,24.45
2022-10-01T02:28:55.328Z,25.50
2022-10-01T02:29:58.793Z,26.40
2022-10-01T02:31:01.274Z,26.50
2022-10-01T02:32:03.649Z,24.30
2022-10-01T02:33:06.373Z,22.40
2022-10-01T02:34:12.485Z,24.64
2022-10-01T02:35:14.882Z,25.70
2022-10-01T02:36:17.344Z,23.80
2022-10-01T02:37:21.495Z,25.50
2022-10-01T02:38:23.766Z,26.50
2022-10-01T02:39:27.484Z,19.10
2022-10-01T02:40:30.161Z,23.80
2022-10-01T02:41:34.608Z,24.09
2022-10-01T02:42:36.980Z,24.50
2022-10-01T02:44:54.900Z,25.70
2022-10-01T02:46:01.564Z,24.00
2022-10-01T02:48:19.496Z,24.00
2022-10-01T02:49:21.599Z,24.00
2022-10-01T02:50:25.566Z,20.50
2022-10-01T02:51:41.119Z,23.90
2022-10-01T02:54:28.116Z,17.80
2022-10-01T02:55:33.233Z,24.20
2022-10-01T02:56:36.755Z,24.30
2022-10-01T02:57:38.985Z,23.20
2022-10-01T02:58:41.574Z,24.70
2022-10-01T02:59:43.860Z,18.10
2022-10-01T03:00:47.203Z,24.90
2022-10-01T03:01:49.423Z,21.80
2022-10-01T03:02:51.910Z,25.70
2022-10-01T03:03:54.165Z,23.50
2022-10-01T03:04:56.679Z,26.10
2022-10-01T03:05:59.092Z,25.00
2022-10-01T03:07:01.428Z,22.20
2022-10-01T03:08:03.537Z,20.30
2022-10-01T03:09:06.007Z,21.50
2022-10-01T03:10:10.274Z,22.00
2022-10-01T03:11:12.697Z,24.20
2022-10-01T03:12:15.411Z,23.90
2022-10-01T03:13:17.527Z,21.50
2022-10-01T03:14:19.654Z,24.50
2022-10-01T03:15:21.779Z,22.90
2022-10-01T03:16:25.795Z,25.82
2022-10-01T03:17:28.197Z,22.40
2022-10-01T03:18:30.468Z,17.10
2022-10-01T03:19:32.594Z,24.60
2022-10-01T03:20:34.919Z,20.90
2022-10-01T03:21:37.160Z,24.10
2022-10-01T03:22:39.420Z,23.40
2022-10-01T03:23:41.509Z,24.50
2022-10-01T03:24:44.724Z,22.30
2022-10-01T03:25:46.884Z,24.00
2022-10-01T03:26:49.033Z,19.50
2022-10-01T03:27:51.182Z,23.90
2022-10-01T03:28:53.360Z,22.50
2022-10-01T03:29:55.605Z,24.20
2022-10-01T03:31:05.718Z,21.20
2022-10-01T03:32:08.012Z,21.80
2022-10-01T03:33:10.119Z,21.40
2022-10-01T03:34:12.205Z,18.10
2022-10-01T03:35:14.439Z,21.30
2022-10-01T03:36:16.957Z,17.70
2022-10-01T03:37:20.262Z,22.30
2022-10-01T03:38:22.392Z,18.80
2022-10-01T03:39:25.013Z,18.20
2022-10-01T03:40:27.225Z,20.20
2022-10-01T03:41:29.357Z,21.20
2022-10-01T03:42:31.651Z,22.40
2022-10-01T03:43:33.930Z,21.60
2022-10-01T03:44:36.006Z,19.90
2022-10-01T03:45:38.245Z,18.90
2022-10-01T03:46:40.638Z,20.80
2022-10-01T03:47:43.482Z,21.91
2022-10-01T03:48:45.600Z,21.00
2022-10-01T03:49:47.701Z,20.60
2022-10-01T03:50:54.252Z,19.10
2022-10-01T03:51:56.431Z,19.60
2022-10-01T03:52:58.549Z,18.30
2022-10-01T03:54:00.643Z,21.90
2022-10-01T03:55:02.951Z,22.00
2022-10-01T03:56:06.123Z,21.90
2022-10-01T03:57:08.511Z,20.30
2022-10-01T03:58:12.003Z,21.60
2022-10-01T03:59:14.339Z,20.60
2022-10-01T04:00:16.892Z,20.40
2022-10-01T04:01:19.058Z,17.30
2022-10-01T04:02:22.158Z,18.20
2022-10-01T04:03:24.496Z,19.10
2022-10-01T04:04:28.587Z,18.55
2022-10-01T04:05:30.756Z,19.80
2022-10-01T04:06:33.057Z,15.90
2022-10-01T04:07:35.131Z,20.78
2022-10-01T04:08:37.341Z,22.60
2022-10-01T04:09:40.617Z,17.50
2022-10-01T04:10:42.769Z,17.90
2022-10-01T04:11:45.519Z,17.80
2022-10-01T04:12:47.614Z,17.20
2022-10-01T04:13:49.991Z,19.70
2022-10-01T04:14:52.586Z,14.30
2022-10-01T04:15:55.230Z,18.00
2022-10-01T04:16:57.654Z,18.18
2022-10-01T04:18:00.116Z,16.70
2022-10-01T04:19:03.399Z,16.90
2022-10-01T04:21:21.589Z,15.60
2022-10-01T04:22:24.587Z,17.80
2022-10-01T04:23:27.294Z,18.00
2022-10-01T04:24:29.934Z,12.00
2022-10-01T04:25:32.042Z,14.50
2022-10-01T04:26:34.142Z,15.20
2022-10-01T04:27:39.937Z,16.10
2022-10-01T04:28:42.189Z,16.50
2022-10-01T04:29:44.277Z,17.60
2022-10-01T04:30:46.389Z,17.60
2022-10-01T04:31:48.527Z,17.90
2022-10-01T04:32:50.680Z,16.70
2022-10-01T04:33:53.977Z,15.70
2022-10-01T04:34:56.032Z,16.80
2022-10-01T04:35:58.116Z,16.50
2022-10-01T04:37:00.487Z,17.50
2022-10-01T04:38:10.492Z,16.00
2022-10-01T04:39:13.013Z,15.80
2022-10-01T04:40:15.646Z,10.20
2022-10-01T04:41:18.064Z,13.40
2022-10-01T04:42:20.564Z,12.10
2022-10-01T04:43:22.661Z,15.90
2022-10-01T04:44:24.644Z,13.50
2022-10-01T04:45:27.207Z,15.80
2022-10-01T04:46:30.075Z,15.00
2022-10-01T04:47:37.367Z,14.50
2022-10-01T04:48:37.521Z,15.20
2022-10-01T04:49:40.684Z,14.40
2022-10-01T04:50:42.813Z,15.90
2022-10-01T04:51:44.937Z,16.20
2022-10-01T04:52:47.007Z,17.60
2022-10-01T04:53:49.111Z,16.90
2022-10-01T04:54:52.185Z,12.80
2022-10-01T04:55:54.415Z,16.60
2022-10-01T04:56:56.735Z,16.80
2022-10-01T04:57:59.912Z,14.40
2022-10-01T04:59:02.135Z,13.50
2022-10-01T05:00:06.480Z,17.40
2022-10-01T05:01:08.661Z,14.80
2022-10-01T05:02:11.048Z,14.00
2022-10-01T05:03:13.697Z,15.10
2022-10-01T05:04:16.779Z,16.90
2022-10-01T05:05:20.826Z,16.40
2022-10-01T05:06:23.799Z,14.90
2022-10-01T05:07:26.979Z,15.40
2022-10-01T05:08:30.846Z,15.30
2022-10-01T05:09:33.999Z,17.10
2022-10-01T05:10:36.863Z,18.36
2022-10-01T05:11:38.874Z,17.90
2022-10-01T05:12:41.345Z,17.70
2022-10-01T05:13:43.559Z,18.30
2022-10-01T05:14:45.626Z,19.80
2022-10-01T05:15:48.947Z,19.50
2022-10-01T05:16:51.502Z,18.80
2022-10-01T05:17:54.072Z,19.50
2022-10-01T05:18:56.508Z,21.20
2022-10-01T05:19:58.625Z,15.10
2022-10-01T05:21:04.819Z,20.90
2022-10-01T05:22:07.171Z,20.80
2022-10-01T05:23:10.284Z,21.50
2022-10-01T05:24:13.162Z,23.20
2022-10-01T05:25:17.256Z,22.55
2022-10-01T05:26:19.437Z,25.40
2022-10-01T05:27:22.055Z,24.30
2022-10-01T05:28:26.766Z,24.30
2022-10-01T05:29:29.575Z,24.30
2022-10-01T05:30:32.307Z,22.80
2022-10-01T05:31:34.684Z,25.30
2022-10-01T05:32:37.186Z,19.55
2022-10-01T05:33:40.553Z,24.10
2022-10-01T05:34:42.720Z,24.80
2022-10-01T05:35:44.872Z,19.60
2022-10-01T05:36:47.101Z,25.30
2022-10-01T05:37:54.405Z,27.50
2022-10-01T05:38:57.167Z,24.50
2022-10-01T05:40:00.467Z,23.70
2022-10-01T05:41:05.631Z,19.20
2022-10-01T05:42:08.451Z,24.10
2022-10-01T05:43:10.721Z,21.27
2022-10-01T05:44:12.742Z,22.70
2022-10-01T05:45:16.925Z,21.80
2022-10-01T05:46:19.991Z,23.00
2022-10-01T05:47:22.248Z,23.00
2022-10-01T05:48:24.466Z,24.20
2022-10-01T05:49:26.594Z,24.40
2022-10-01T05:50:29.582Z,22.30
2022-10-01T05:51:33.015Z,20.50
2022-10-01T05:52:36.013Z,20.70
2022-10-01T05:53:38.309Z,21.18
2022-10-01T05:54:40.537Z,21.90
2022-10-01T05:55:42.565Z,22.30
2022-10-01T05:56:45.339Z,23.40
2022-10-01T05:57:57.611Z,24.80
2022-10-01T05:58:59.919Z,21.80
2022-10-01T06:00:02.388Z,23.30
2022-10-01T06:01:06.476Z,21.70
2022-10-01T06:02:09.220Z,22.90
2022-10-01T06:03:11.756Z,17.64
2022-10-01T06:04:13.969Z,20.10
2022-10-01T06:05:17.050Z,19.55
2022-10-01T06:07:34.917Z,21.00
2022-10-01T06:08:36.928Z,18.90
2022-10-01T06:09:39.116Z,19.10
2022-10-01T06:10:42.192Z,19.60
2022-10-01T06:11:45.833Z,19.30
2022-10-01T06:12:48.286Z,18.70
2022-10-01T06:13:50.502Z,17.90
2022-10-01T06:14:53.170Z,20.00
2022-10-01T06:15:55.344Z,17.82
2022-10-01T06:16:57.462Z,18.60
2022-10-01T06:18:03.947Z,18.10
2022-10-01T06:19:06.106Z,17.10
2022-10-01T06:20:09.611Z,19.00
2022-10-01T06:21:12.633Z,17.70
2022-10-01T06:22:15.911Z,17.00
2022-10-01T06:23:18.084Z,18.70
2022-10-01T06:24:20.201Z,17.60
2022-10-01T06:25:22.839Z,11.70
2022-10-01T06:26:25.059Z,16.60
2022-10-01T06:27:27.401Z,17.00
2022-10-01T06:28:29.649Z,15.90
2022-10-01T06:29:31.845Z,15.20
2022-10-01T06:30:35.804Z,13.60
2022-10-01T06:31:38.649Z,15.50
2022-10-01T06:32:42.304Z,16.70
2022-10-01T06:33:45.711Z,15.80
2022-10-01T06:34:48.251Z,14.70
2022-10-01T06:35:51.101Z,15.20
2022-10-01T06:36:53.571Z,15.50
2022-10-01T06:37:57.518Z,16.80
2022-10-01T06:38:59.763Z,15.90
2022-10-01T06:40:02.194Z,15.40
2022-10-01T06:41:05.040Z,14.70
2022-10-01T06:42:07.064Z,13.70
2022-10-01T06:43:09.090Z,13.90
2022-10-01T06:44:11.383Z,7.60
2022-10-01T06:45:13.838Z,15.20
2022-10-01T06:46:16.900Z,14.70
2022-10-01T06:47:21.370Z,11.30
2022-10-01T06:48:23.739Z,12.40
2022-10-01T06:49:25.814Z,14.90
2022-10-01T06:50:28.324Z,11.60
2022-10-01T06:51:30.477Z,10.90
2022-10-01T06:52:33.739Z,12.60
2022-10-01T06:53:35.885Z,12.10
2022-10-01T06:54:37.897Z,13.10
2022-10-01T06:55:40.000Z,13.80
2022-10-01T06:56:43.284Z,10.90
2022-10-01T06:57:47.702Z,12.70
2022-10-01T06:58:51.089Z,10.90
2022-10-01T06:59:53.275Z,11.40
2022-10-01T07:00:59.464Z,13.20
2022-10-01T07:02:03.476Z,11.70
2022-10-01T07:03:13.958Z,13.30
2022-10-01T07:04:16.152Z,10.00
2022-10-01T07:05:18.338Z,12.20
2022-10-01T07:06:20.691Z,11.30
2022-10-01T07:07:27.017Z,11.20
2022-10-01T07:08:27.862Z,11.90
2022-10-01T07:09:30.053Z,10.90
2022-10-01T07:10:34.279Z,10.82
2022-10-01T07:11:36.945Z,8.70
2022-10-01T07:12:39.347Z,10.90
2022-10-01T07:13:41.493Z,11.20
2022-10-01T07:14:45.398Z,10.70
2022-10-01T07:15:47.524Z,11.80
2022-10-01T07:16:49.678Z,10.10
2022-10-01T07:17:51.964Z,10.20
2022-10-01T07:18:54.472Z,7.30
2022-10-01T07:19:57.164Z,9.20
2022-10-01T07:21:00.274Z,9.70
2022-10-01T07:22:07.271Z,6.90
2022-10-01T07:23:12.170Z,6.40
2022-10-01T07:24:19.309Z,8.70
2022-10-01T07:26:35.478Z,8.80
2022-10-01T07:27:37.962Z,8.50
2022-10-01T07:28:40.101Z,8.40
2022-10-01T07:29:42.198Z,8.80
2022-10-01T07:31:00.525Z,7.30
2022-10-01T07:32:02.752Z,7.50
2022-10-01T07:33:05.625Z,6.30
2022-10-01T07:34:07.886Z,5.60
2022-10-01T07:35:10.238Z,7.20
2022-10-01T07:36:13.393Z,6.60
2022-10-01T07:37:17.315Z,6.00
2022-10-01T07:38:20.524Z,7.60
2022-10-01T07:39:23.281Z,7.90
2022-10-01T07:40:25.949Z,5.91
2022-10-01T07:41:29.018Z,5.10
2022-10-01T07:42:32.681Z,6.20
2022-10-01T07:43:35.005Z,6.50
2022-10-01T07:44:39.245Z,4.18
2022-10-01T07:45:41.540Z,3.00
2022-10-01T07:46:44.014Z,5.20
2022-10-01T07:49:00.989Z,7.20
2022-10-01T07:50:04.698Z,5.20
2022-10-01T07:51:07.617Z,4.50
2022-10-01T07:52:13.251Z,4.91
2022-10-01T07:53:15.802Z,4.90
2022-10-01T07:54:17.961Z,4.90
2022-10-01T07:55:21.006Z,5.90
2022-10-01T07:56:23.265Z,4.60
2022-10-01T07:57:25.363Z,5.40
2022-10-01T07:58:27.463Z,6.40
2022-10-01T07:59:29.455Z,3.70
2022-10-01T08:00:32.337Z,4.80
2022-10-01T08:01:35.946Z,3.50
2022-10-01T08:02:38.440Z,5.40
2022-10-01T08:03:41.675Z,7.20
2022-10-01T08:04:44.104Z,4.50
2022-10-01T08:05:47.880Z,5.10
2022-10-01T08:06:50.403Z,5.60
2022-10-01T08:07:52.688Z,8.60
2022-10-01T08:08:55.746Z,4.80
2022-10-01T08:09:57.786Z,5.60
2022-10-01T08:11:02.070Z,5.10
2022-10-01T08:12:05.413Z,4.90
2022-10-01T08:13:14.295Z,5.30
2022-10-01T08:14:16.837Z,5.10
2022-10-01T08:15:18.906Z,4.40
2022-10-01T08:16:21.142Z,5.00
2022-10-01T08:17:28.552Z,4.00
2022-10-01T08:18:27.600Z,5.20
2022-10-01T08:19:29.729Z,5.40
2022-10-01T08:20:33.128Z,5.40
2022-10-01T08:21:35.728Z,3.60
2022-10-01T08:22:42.059Z,2.50
2022-10-01T08:23:43.179Z,3.90
2022-10-01T08:24:45.780Z,3.70
2022-10-01T08:25:48.078Z,5.18
2022-10-01T08:26:52.013Z,6.10
2022-10-01T08:27:54.363Z,5.10
2022-10-01T08:28:56.413Z,5.30
2022-10-01T08:29:59.736Z,4.70
2022-10-01T08:31:05.975Z,3.70
2022-10-01T08:32:09.089Z,4.10
2022-10-01T08:33:12.211Z,4.80
2022-10-01T08:34:14.631Z,4.30
2022-10-01T08:35:18.199Z,3.45
2022-10-01T08:36:21.199Z,3.00
2022-10-01T08:37:27.002Z,4.70
2022-10-01T08:38:29.049Z,3.60
2022-10-01T08:39:31.167Z,4.10
2022-10-01T08:40:33.709Z,4.30
2022-10-01T08:41:51.478Z,4.80
2022-10-01T08:42:56.781Z,3.40
2022-10-01T08:43:59.546Z,3.50
2022-10-01T08:45:05.205Z,4.00
2022-10-01T08:46:16.612Z,3.10
2022-10-01T08:47:39.983Z,3.40
2022-10-01T08:49:03.615Z,4.00
2022-10-01T08:51:27.354Z,3.40
2022-10-01T08:52:31.934Z,4.00
2022-10-01T08:53:44.272Z,3.80
2022-10-01T08:54:52.806Z,2.40
2022-10-01T08:55:55.027Z,4.90
2022-10-01T08:57:02.066Z,4.50
2022-10-01T08:58:12.333Z,4.20
2022-10-01T08:59:36.444Z,4.40
2022-10-01T09:00:40.701Z,3.30
2022-10-01T09:01:45.118Z,4.20
2022-10-01T09:02:47.311Z,4.00
2022-10-01T09:03:52.578Z,3.60
2022-10-01T09:05:02.068Z,3.00
2022-10-01T09:06:25.188Z,3.10
2022-10-01T09:07:31.245Z,4.10
2022-10-01T09:08:58.822Z,0.90
2022-10-01T09:10:23.159Z,3.70
2022-10-01T09:11:32.492Z,2.50
2022-10-01T09:12:40.645Z,2.20
2022-10-01T09:13:56.001Z,3.40
2022-10-01T09:15:02.309Z,3.10
2022-10-01T09:16:25.335Z,3.40
2022-10-01T09:17:56.238Z,3.60
2022-10-01T09:19:26.406Z,4.50
2022-10-01T09:20:41.193Z,3.80
2022-10-01T09:22:01.724Z,4.40
2022-10-01T09:23:25.414Z,3.90
2022-10-01T09:24:43.255Z,3.70
2022-10-01T09:25:47.690Z,2.70
2022-10-01T09:26:49.908Z,2.60
2022-10-01T09:28:14.284Z,1.40
2022-10-01T09:30:43.803Z,2.50
2022-10-01T09:31:46.283Z,3.30
2022-10-01T09:34:21.769Z,2.60
2022-10-01T09:35:30.619Z,3.50
2022-10-01T09:36:39.215Z,2.10
2022-10-01T09:37:47.396Z,1.90
2022-10-01T09:39:21.606Z,2.90
2022-10-01T09:40:35.351Z,4.40
2022-10-01T09:41:37.595Z,5.20
2022-10-01T09:42:39.773Z,19.90
2022-10-01T09:43:41.964Z,14.10
2022-10-01T09:44:44.268Z,14.40
2022-10-01T09:45:46.400Z,13.30
2022-10-01T09:46:49.264Z,15.90
2022-10-01T09:47:52.568Z,14.60
2022-10-01T09:49:05.988Z,14.10
2022-10-01T09:50:15.143Z,14.80
2022-10-01T09:51:22.404Z,7.00
2022-10-01T09:52:36.431Z,13.10
2022-10-01T09:53:41.832Z,13.80
2022-10-01T09:54:50.686Z,21.10
2022-10-01T09:55:55.677Z,21.30
2022-10-01T09:57:00.903Z,10.80
2022-10-01T09:59:24.319Z,17.50
2022-10-01T10:01:40.559Z,16.20
2022-10-01T10:06:16.906Z,6.00
2022-10-01T10:07:23.175Z,12.40
2022-10-01T10:08:28.039Z,10.80
2022-10-01T10:09:31.642Z,8.80
2022-10-01T10:10:34.589Z,9.10
2022-10-01T10:11:37.114Z,9.45
2022-10-01T10:12:39.515Z,8.40
2022-10-01T10:13:54.428Z,5.00
2022-10-01T10:14:58.565Z,7.40
2022-10-01T10:16:06.619Z,7.10
2022-10-01T10:17:14.551Z,5.90
2022-10-01T10:18:23.780Z,4.60
2022-10-01T10:19:26.642Z,4.50
2022-10-01T10:20:31.507Z,2.80
2022-10-01T10:21:33.765Z,3.50
2022-10-01T10:22:36.794Z,3.40
2022-10-01T10:23:53.580Z,3.50
2022-10-01T10:24:55.863Z,2.00
2022-10-01T10:26:02.300Z,1.10
2022-10-01T10:27:07.534Z,1.30
2022-10-01T10:29:36.447Z,0.50
2022-10-01T10:30:38.944Z,2.20
2022-10-01T10:31:43.291Z,2.60
2022-10-01T10:32:45.621Z,1.80
2022-10-01T10:33:53.267Z,1.70
2022-10-01T10:35:02.696Z,1.70
2022-10-01T10:36:04.589Z,2.40
2022-10-01T10:38:24.867Z,1.30
2022-10-01T10:39:29.959Z,1.50
2022-10-01T10:40:35.908Z,1.70
2022-10-01T10:41:38.258Z,0.80
2022-10-01T10:42:46.717Z,3.40
2022-10-01T10:43:49.052Z,3.80
2022-10-01T10:44:54.227Z,1.82
2022-10-01T10:45:56.585Z,3.00
2022-10-01T10:47:04.717Z,2.00
2022-10-01T10:48:07.970Z,1.80
2022-10-01T10:49:16.876Z,1.50
2022-10-01T10:50:38.868Z,2.50
2022-10-01T10:53:14.996Z,2.10
2022-10-01T10:54:18.910Z,1.80
2022-10-01T10:55:27.077Z,1.20
2022-10-01T10:56:29.831Z,1.70
2022-10-01T10:57:34.592Z,2.20
2022-10-01T10:58:38.020Z,2.30
2022-10-01T10:59:40.568Z,1.73
2022-10-01T11:00:47.097Z,1.20
2022-10-01T11:01:51.287Z,1.30
2022-10-01T11:02:56.190Z,1.50
2022-10-01T11:03:59.612Z,1.50
2022-10-01T11:05:05.056Z,1.50
2022-10-01T11:06:13.338Z,1.20
2022-10-01T11:07:21.180Z,2.70
2022-10-01T11:08:24.023Z,0.60
2022-10-01T11:09:28.850Z,1.36
2022-10-01T11:11:58.344Z,0.60
2022-10-01T11:13:06.905Z,1.50
2022-10-01T11:14:29.440Z,1.50
2022-10-01T11:17:27.080Z,1.50
2022-10-01T11:18:40.340Z,1.10
2022-10-01T11:19:46.406Z,1.40
2022-10-01T11:21:07.085Z,1.20
2022-10-01T11:22:34.727Z,1.70
2022-10-01T11:25:23.838Z,1.70
2022-10-01T11:28:11.086Z,1.50
2022-10-01T11:29:46.263Z,1.70
2022-10-01T11:30:56.279Z,2.20
2022-10-01T11:33:34.751Z,2.00
2022-10-01T11:34:45.633Z,1.00
2022-10-01T11:36:23.364Z,1.20
2022-10-01T11:37:38.359Z,1.30
2022-10-01T11:39:01.728Z,2.80
2022-10-01T11:40:23.258Z,2.20
2022-10-01T11:41:29.808Z,2.90
2022-10-01T11:42:33.970Z,3.70
2022-10-01T11:43:38.497Z,4.00
2022-10-01T11:44:46.763Z,4.70
2022-10-01T11:45:51.404Z,1.30
2022-10-01T11:47:08.504Z,3.30
2022-10-01T11:48:15.704Z,4.40
2022-10-01T11:49:22.441Z,4.70
2022-10-01T11:50:29.360Z,4.00
2022-10-01T11:53:02.534Z,3.80
2022-10-01T11:54:06.910Z,3.40
2022-10-01T11:55:21.964Z,3.20
2022-10-01T11:56:26.827Z,2.50
2022-10-01T11:57:31.122Z,3.00
2022-10-01T11:58:57.992Z,3.30
2022-10-01T12:00:05.791Z,2.20
2022-10-01T12:01:14.113Z,2.80
2022-10-01T12:02:32.803Z,4.20
2022-10-01T12:05:11.479Z,3.90
2022-10-01T12:06:14.846Z,4.20
2022-10-01T12:07:51.911Z,3.90
2022-10-01T12:08:58.908Z,5.50
2022-10-01T12:10:21.241Z,4.20
2022-10-01T12:11:28.231Z,3.80
2022-10-01T12:12:34.043Z,3.00
2022-10-01T12:13:42.230Z,5.00
2022-10-01T12:14:49.764Z,3.70
2022-10-01T12:16:11.771Z,4.20
2022-10-01T12:17:20.931Z,3.50
2022-10-01T12:18:41.867Z,4.10
2022-10-01T12:19:46.425Z,4.20
2022-10-01T12:22:24.869Z,4.50
2022-10-01T12:23:44.093Z,4.00
2022-10-01T12:24:46.243Z,4.70
2022-10-01T12:27:31.901Z,4.50
2022-10-01T12:28:40.437Z,4.50
2022-10-01T12:29:49.333Z,4.30
2022-10-01T12:32:30.275Z,5.20
2022-10-01T12:33:55.716Z,3.30
2022-10-01T12:35:14.543Z,5.10
2022-10-01T12:36:23.559Z,4.50
2022-10-01T12:37:41.867Z,3.60
2022-10-01T12:39:12.212Z,4.20
2022-10-01T12:40:26.233Z,4.80
2022-10-01T12:41:35.864Z,3.50
2022-10-01T12:42:54.520Z,4.10
2022-10-01T12:44:00.398Z,4.10
2022-10-01T12:45:06.389Z,3.70
2022-10-01T12:46:18.482Z,4.50
2022-10-01T12:47:34.632Z,5.40
2022-10-01T12:48:59.355Z,3.50
2022-10-01T12:50:40.739Z,4.20
2022-10-01T12:51:47.047Z,4.00
2022-10-01T12:54:50.330Z,3.20
2022-10-01T12:57:23.009Z,3.90
2022-10-01T12:58:44.831Z,5.00
2022-10-01T13:00:08.864Z,3.80
2022-10-01T13:02:41.700Z,3.30
2022-10-01T13:04:16.174Z,3.60
2022-10-01T13:07:06.509Z,5.30
2022-10-01T13:09:48.796Z,5.00
2022-10-01T13:11:02.087Z,5.00
2022-10-01T13:12:14.703Z,5.50
2022-10-01T13:13:27.864Z,7.20
2022-10-01T13:14:31.758Z,7.70
2022-10-01T13:15:37.480Z,15.50
2022-10-01T13:16:47.271Z,10.00
2022-10-01T13:18:05.432Z,9.90
2022-10-01T13:21:10.104Z,9.40
2022-10-01T13:22:15.942Z,9.70
2022-10-01T13:23:42.522Z,6.20
2022-10-01T13:26:13.930Z,9.90
2022-10-01T13:27:22.881Z,11.20
2022-10-01T13:28:47.124Z,12.80
2022-10-01T13:31:14.440Z,8.80
2022-10-01T13:33:37.794Z,8.90
2022-10-01T13:34:41.352Z,9.60
2022-10-01T13:35:47.371Z,7.90
2022-10-01T13:36:49.721Z,9.20
2022-10-01T13:37:52.957Z,9.00
2022-10-01T13:38:56.164Z,7.40
2022-10-01T13:39:58.891Z,7.30
2022-10-01T13:41:02.967Z,7.70
2022-10-01T13:42:07.413Z,6.50
2022-10-01T13:43:22.926Z,8.10
2022-10-01T13:44:29.010Z,7.80
2022-10-01T13:45:40.254Z,7.30
2022-10-01T13:46:55.436Z,6.40
2022-10-01T13:48:14.737Z,4.80
2022-10-01T13:49:28.191Z,6.10
2022-10-01T13:50:31.505Z,7.20
2022-10-01T13:51:35.947Z,6.10
2022-10-01T13:52:38.352Z,5.80
2022-10-01T13:53:44.162Z,5.20
2022-10-01T13:54:50.446Z,4.30
2022-10-01T13:55:52.651Z,5.00
2022-10-01T13:56:56.156Z,5.90
2022-10-01T13:58:06.382Z,5.20
2022-10-01T14:00:49.536Z,6.70
2022-10-01T14:01:51.853Z,6.00
2022-10-01T14:04:20.809Z,6.00
2022-10-01T14:05:39.205Z,4.10
2022-10-01T14:06:48.792Z,5.00
2022-10-01T14:07:53.750Z,5.10
2022-10-01T14:09:16.125Z,6.20
2022-10-01T14:10:18.698Z,5.00
2022-10-01T14:11:25.397Z,4.00
2022-10-01T14:12:30.390Z,4.80
2022-10-01T14:13:32.658Z,6.50
2022-10-01T14:14:40.029Z,6.20
2022-10-01T14:15:43.859Z,7.60
2022-10-01T14:16:47.410Z,7.60
2022-10-01T14:17:51.161Z,6.90
2022-10-01T14:18:53.414Z,7.90
2022-10-01T14:19:56.789Z,6.20
2022-10-01T14:21:16.187Z,7.10
2022-10-01T14:22:31.390Z,9.30
2022-10-01T14:25:13.237Z,7.50
2022-10-01T14:26:35.038Z,2.40
2022-10-01T14:27:42.328Z,6.40
2022-10-01T14:28:50.006Z,8.50
2022-10-01T14:30:01.466Z,6.20
2022-10-01T14:31:20.795Z,7.00
2022-10-01T14:32:36.500Z,7.70
2022-10-01T14:33:54.960Z,8.20
2022-10-01T14:35:34.841Z,8.60
2022-10-01T14:36:44.520Z,7.00
2022-10-01T14:37:46.663Z,5.70
2022-10-01T14:38:49.822Z,7.10
2022-10-01T14:41:23.566Z,9.40
2022-10-01T14:42:25.992Z,8.90
2022-10-01T14:43:30.134Z,5.40
2022-10-01T14:44:41.159Z,8.40
2022-10-01T14:46:10.910Z,7.50
2022-10-01T14:47:20.101Z,7.30
2022-10-01T14:48:23.297Z,6.30
2022-10-01T14:50:49.414Z,6.80
2022-10-01T14:53:14.022Z,7.00
2022-10-01T14:54:16.479Z,4.40
2022-10-01T14:55:21.383Z,5.30
2022-10-01T14:56:25.035Z,8.80
2022-10-01T14:57:29.692Z,7.00
2022-10-01T14:58:43.409Z,9.30
2022-10-01T14:59:46.140Z,12.30
2022-10-01T15:00:51.306Z,12.45
2022-10-01T15:01:58.689Z,14.50
2022-10-01T15:03:11.099Z,16.50
2022-10-01T15:04:14.424Z,16.90
2022-10-01T15:06:39.081Z,18.40
2022-10-01T15:07:42.413Z,18.70
2022-10-01T15:08:45.882Z,17.40
2022-10-01T15:09:48.288Z,18.10
2022-10-01T15:10:55.595Z,20.40
2022-10-01T15:11:58.187Z,22.50
2022-10-01T15:13:00.276Z,22.90
2022-10-01T15:14:04.503Z,26.50
2022-10-01T15:15:15.992Z,28.00
2022-10-01T15:16:20.817Z,29.50
2022-10-01T15:17:24.742Z,30.00
2022-10-01T15:18:26.928Z,31.10
2022-10-01T15:19:30.094Z,30.90
2022-10-01T15:20:32.826Z,29.10
2022-10-01T15:21:36.921Z,30.10
2022-10-01T15:22:39.086Z,31.70
2022-10-01T15:23:42.293Z,30.60
2022-10-01T15:24:46.522Z,33.40
2022-10-01T15:25:48.664Z,32.80
2022-10-01T15:26:51.965Z,32.20
2022-10-01T15:27:55.274Z,32.09
2022-10-01T15:30:18.487Z,33.50
2022-10-01T15:31:22.694Z,34.10
2022-10-01T15:32:25.312Z,32.90
2022-10-01T15:33:30.003Z,33.60
2022-10-01T15:34:32.713Z,33.50
2022-10-01T15:35:34.838Z,32.20